createdAt,value
2018-02-01T00:00:05.736Z,7.03
2018-02-01T00:02:33.227Z,6.40
2018-02-01T00:05:00.733Z,6.25
2018-02-01T00:07:28.221Z,6.75
2018-02-01T00:09:55.718Z,7.43
2018-02-01T00:12:23.233Z,7.97
2018-02-01T00:14:50.763Z,9.32
2018-02-01T00:17:18.283Z,9.10
2018-02-01T00:19:45.782Z,8.93
2018-02-01T00:22:16.162Z,9.15
2018-02-01T00:24:43.668Z,9.55
2018-02-01T00:27:11.199Z,10.55
2018-02-01T00:29:39.468Z,8.63
2018-02-01T00:32:07.009Z,11.90
2018-02-01T00:34:34.519Z,11.00
2018-02-01T00:37:02.040Z,13.02
2018-02-01T00:39:29.534Z,12.82
2018-02-01T00:41:57.063Z,12.60
2018-02-01T00:44:25.335Z,14.45
2018-02-01T00:46:52.864Z,14.32
2018-02-01T00:49:20.362Z,14.30
2018-02-01T00:51:48.656Z,14.35
2018-02-01T00:54:16.150Z,14.93
2018-02-01T00:56:43.673Z,14.75
2018-02-01T00:59:11.178Z,15.07
2018-02-01T01:01:38.707Z,15.65
2018-02-01T01:04:06.202Z,14.43
2018-02-01T01:06:33.702Z,13.95
2018-02-01T01:09:01.222Z,12.85
2018-02-01T01:11:28.731Z,11.38
2018-02-01T01:13:56.260Z,12.43
2018-02-01T01:16:24.531Z,13.32
2018-02-01T01:18:52.042Z,11.82
2018-02-01T01:21:19.542Z,11.23
2018-02-01T01:23:47.840Z,10.25
2018-02-01T01:26:16.115Z,12.13
2018-02-01T01:28:44.405Z,11.32
2018-02-01T01:31:11.912Z,11.20
2018-02-01T01:33:39.429Z,12.00
2018-02-01T01:36:06.926Z,10.23
2018-02-01T01:38:34.450Z,9.70
2018-02-01T01:41:01.961Z,9.50
2018-02-01T01:43:30.255Z,10.20
2018-02-01T01:46:10.381Z,8.90
2018-02-01T01:48:37.899Z,10.05
2018-02-01T01:51:05.404Z,8.93
2018-02-01T01:53:32.893Z,11.12
2018-02-01T01:56:00.420Z,9.70
2018-02-01T01:58:27.934Z,9.95
2018-02-01T02:00:55.468Z,11.57
2018-02-01T02:03:22.970Z,9.10
2018-02-01T02:05:51.269Z,10.93
2018-02-01T02:08:18.761Z,8.77
2018-02-01T02:10:46.273Z,8.93
2018-02-01T02:13:13.765Z,8.70
2018-02-01T02:15:42.050Z,10.10
2018-02-01T02:18:09.555Z,7.97
2018-02-01T02:20:37.077Z,7.60
2018-02-01T02:23:04.569Z,8.98
2018-02-01T02:25:32.082Z,8.30
2018-02-01T02:27:59.614Z,9.05
2018-02-01T02:30:27.146Z,7.80
2018-02-01T02:32:54.646Z,9.52
2018-02-01T02:35:22.932Z,7.65
2018-02-01T02:37:50.437Z,7.53
2018-02-01T02:40:17.950Z,8.45
2018-02-01T02:42:45.453Z,7.93
2018-02-01T02:45:12.952Z,7.47
2018-02-01T02:47:41.232Z,7.25
2018-02-01T02:50:09.507Z,7.20
2018-02-01T02:52:37.786Z,7.20
2018-02-01T02:55:06.041Z,6.45
2018-02-01T02:57:33.552Z,6.50
2018-02-01T03:00:01.076Z,6.85
2018-02-01T03:02:29.354Z,6.85
2018-02-01T03:04:57.637Z,6.20
2018-02-01T03:07:25.908Z,6.68
2018-02-01T03:09:54.180Z,6.45
2018-02-01T03:12:22.455Z,5.87
2018-02-01T03:14:50.737Z,5.87
2018-02-01T03:17:19.008Z,7.47
2018-02-01T03:19:47.299Z,6.35
2018-02-01T03:22:14.801Z,6.68
2018-02-01T03:24:42.324Z,6.62
2018-02-01T03:27:09.837Z,7.15
2018-02-01T03:29:37.346Z,6.20
2018-02-01T03:32:04.852Z,7.30
2018-02-01T03:34:32.368Z,7.07
2018-02-01T03:36:59.854Z,6.78
2018-02-01T03:39:27.365Z,7.47
2018-02-01T03:41:54.869Z,7.28
2018-02-01T03:44:22.380Z,7.47
2018-02-01T03:46:49.904Z,7.28
2018-02-01T03:49:17.408Z,6.72
2018-02-01T03:51:44.916Z,8.70
2018-02-01T03:54:12.430Z,7.07
2018-02-01T03:56:39.961Z,7.97
2018-02-01T03:59:08.233Z,7.72
2018-02-01T04:01:36.481Z,8.38
2018-02-01T04:04:03.981Z,8.32
2018-02-01T04:06:31.479Z,8.63
2018-02-01T04:08:58.988Z,8.70
2018-02-01T04:11:27.261Z,8.85
2018-02-01T04:13:55.613Z,8.82
2018-02-01T04:16:23.102Z,9.57
2018-02-01T04:18:51.359Z,8.85
2018-02-01T04:21:19.655Z,9.95
2018-02-01T04:23:47.912Z,10.45
2018-02-01T04:26:15.440Z,10.00
2018-02-01T04:28:42.939Z,9.43
2018-02-01T04:31:11.241Z,9.93
2018-02-01T04:33:38.746Z,10.95
2018-02-01T04:36:06.269Z,10.23
2018-02-01T04:38:33.784Z,11.70
2018-02-01T04:41:02.055Z,11.90
2018-02-01T04:43:29.570Z,9.68
2018-02-01T04:45:57.062Z,10.65
2018-02-01T04:48:24.587Z,11.00
2018-02-01T04:50:52.086Z,10.35
2018-02-01T04:53:19.602Z,11.57
2018-02-01T04:55:47.100Z,10.25
2018-02-01T04:58:14.623Z,11.12
2018-02-01T05:00:42.122Z,11.00
2018-02-01T05:03:10.426Z,10.13
2018-02-01T05:05:37.924Z,9.65
2018-02-01T05:08:06.199Z,9.50
2018-02-01T05:10:33.705Z,9.43
2018-02-01T05:13:01.972Z,9.85
2018-02-01T05:15:30.241Z,9.52
2018-02-01T05:17:58.502Z,9.70
2018-02-01T05:20:26.051Z,10.18
2018-02-01T05:22:53.563Z,9.15
2018-02-01T05:25:21.080Z,8.57
2018-02-01T05:27:48.591Z,8.15
2018-02-01T05:30:16.089Z,9.20
2018-02-01T05:32:43.627Z,9.38
2018-02-01T05:35:11.136Z,10.02
2018-02-01T05:37:39.405Z,8.73
2018-02-01T05:40:07.661Z,9.88
2018-02-01T05:42:35.184Z,9.68
2018-02-01T05:45:02.678Z,8.48
2018-02-01T05:47:30.235Z,8.63
2018-02-01T05:49:57.734Z,9.07
2018-02-01T05:52:25.254Z,10.00
2018-02-01T05:54:52.749Z,10.40
2018-02-01T05:57:20.276Z,9.57
2018-02-01T05:59:47.784Z,8.70
2018-02-01T06:02:15.272Z,9.00
2018-02-01T06:04:42.802Z,9.98
2018-02-01T06:07:10.289Z,8.82
2018-02-01T06:09:37.809Z,10.40
2018-02-01T06:12:05.327Z,10.10
2018-02-01T06:14:32.860Z,9.82
2018-02-01T06:17:00.354Z,8.43
2018-02-01T06:19:28.617Z,8.63
2018-02-01T06:21:56.150Z,9.77
2018-02-01T06:24:23.646Z,9.52
2018-02-01T06:26:51.987Z,8.95
2018-02-01T06:29:19.471Z,9.93
2018-02-01T06:31:46.999Z,8.60
2018-02-01T06:34:14.490Z,10.15
2018-02-01T06:36:42.020Z,8.93
2018-02-01T06:39:09.524Z,9.85
2018-02-01T06:41:37.796Z,8.88
2018-02-01T06:44:06.092Z,7.93
2018-02-01T06:46:33.600Z,8.13
2018-02-01T06:49:01.110Z,9.13
2018-02-01T06:51:28.605Z,9.43
2018-02-01T06:53:56.124Z,8.70
2018-02-01T06:56:23.636Z,8.85
2018-02-01T06:58:51.151Z,8.18
2018-02-01T07:01:22.598Z,7.72
2018-02-01T07:03:50.124Z,9.10
2018-02-01T07:06:18.396Z,9.18
2018-02-01T07:08:46.676Z,9.25
2018-02-01T07:11:14.962Z,10.30
2018-02-01T07:13:43.231Z,9.20
2018-02-01T07:16:11.531Z,8.43
2018-02-01T07:18:39.044Z,8.60
2018-02-01T07:21:06.558Z,8.35
2018-02-01T07:23:34.048Z,9.02
2018-02-01T07:26:02.340Z,9.60
2018-02-01T07:28:29.855Z,8.70
2018-02-01T07:30:57.403Z,9.68
2018-02-01T07:33:24.919Z,8.43
2018-02-01T07:35:52.450Z,6.78
2018-02-01T07:38:19.979Z,7.78
2018-02-01T07:40:47.498Z,7.57
2018-02-01T07:43:15.025Z,6.95
2018-02-01T07:45:42.513Z,7.40
2018-02-01T07:48:10.036Z,5.82
2018-02-01T07:50:37.518Z,6.20
2018-02-01T07:53:05.002Z,6.03
2018-02-01T07:55:32.520Z,7.32
2018-02-01T07:58:00.006Z,7.50
2018-02-01T08:00:28.309Z,5.35
2018-02-01T08:02:55.808Z,5.12
2018-02-01T08:05:23.332Z,7.32
2018-02-01T08:07:50.839Z,5.35
2018-02-01T08:10:18.375Z,6.90
2018-02-01T08:12:45.861Z,7.35
2018-02-01T08:15:13.359Z,6.93
2018-02-01T08:17:40.880Z,8.30
2018-02-01T08:20:08.388Z,7.32
2018-02-01T08:22:35.913Z,5.10
2018-02-01T08:25:04.174Z,5.25
2018-02-01T08:27:31.720Z,5.62
2018-02-01T08:29:59.223Z,5.25
2018-02-01T08:32:26.713Z,4.95
2018-02-01T08:34:54.226Z,4.62
2018-02-01T08:37:22.490Z,6.25
2018-02-01T08:39:50.792Z,10.80
2018-02-01T08:42:18.304Z,5.50
2018-02-01T08:44:45.814Z,4.70
2018-02-01T08:47:13.302Z,5.90
2018-02-01T08:49:40.810Z,4.30
2018-02-01T08:52:09.070Z,4.28
2018-02-01T08:54:36.573Z,5.75
2018-02-01T08:57:04.076Z,5.78
2018-02-01T08:59:31.613Z,4.05
2018-02-01T09:01:59.120Z,4.60
2018-02-01T09:04:27.405Z,4.78
2018-02-01T09:06:54.917Z,24.00
2018-02-01T09:09:22.419Z,3.85
2018-02-01T09:11:50.689Z,4.15
2018-02-01T09:14:18.181Z,3.65
2018-02-01T09:16:45.693Z,3.55
2018-02-01T09:19:13.968Z,3.70
2018-02-01T09:21:42.238Z,3.62
2018-02-01T09:24:09.752Z,9.80
2018-02-01T09:26:37.261Z,9.65
2018-02-01T09:29:05.539Z,4.68
2018-02-01T09:31:33.822Z,5.68
2018-02-01T09:34:02.100Z,6.18
2018-02-01T09:36:30.361Z,4.05
2018-02-01T09:38:57.861Z,3.42
2018-02-01T09:41:25.360Z,3.65
2018-02-01T09:43:52.884Z,4.12
2018-02-01T09:46:20.388Z,3.17
2018-02-01T09:48:47.912Z,2.47
2018-02-01T09:51:15.406Z,2.90
2018-02-01T09:53:42.924Z,2.67
2018-02-01T09:56:10.427Z,3.20
2018-02-01T09:58:38.739Z,3.20
2018-02-01T10:01:06.234Z,6.07
2018-02-01T10:03:33.726Z,4.00
2018-02-01T10:06:02.003Z,4.00
2018-02-01T10:08:30.280Z,3.40
2018-02-01T10:10:58.573Z,3.65
2018-02-01T10:13:26.062Z,2.95
2018-02-01T10:15:53.569Z,3.12
2018-02-01T10:18:21.853Z,4.65
2018-02-01T10:20:50.152Z,4.43
2018-02-01T10:23:17.650Z,4.00
2018-02-01T10:25:45.184Z,3.65
2018-02-01T10:28:12.693Z,4.25
2018-02-01T10:30:40.951Z,2.72
2018-02-01T10:33:08.474Z,4.62
2018-02-01T10:35:35.961Z,3.55
2018-02-01T10:38:03.486Z,3.10
2018-02-01T10:40:30.982Z,7.55
2018-02-01T10:42:58.512Z,3.70
2018-02-01T10:45:26.002Z,3.05
2018-02-01T10:47:53.537Z,5.10
2018-02-01T10:50:21.051Z,2.80
2018-02-01T10:52:49.342Z,2.83
2018-02-01T10:55:16.847Z,3.78
2018-02-01T10:57:44.347Z,2.95
2018-02-01T11:00:11.887Z,2.90
2018-02-01T11:02:40.165Z,2.60
2018-02-01T11:05:08.445Z,2.78
2018-02-01T11:07:36.976Z,2.78
2018-02-01T11:10:04.478Z,3.00
2018-02-01T11:12:33.449Z,2.70
2018-02-01T11:15:00.962Z,3.67
2018-02-01T11:17:28.457Z,2.50
2018-02-01T11:19:55.992Z,2.40
2018-02-01T11:22:23.502Z,4.00
2018-02-01T11:24:51.808Z,2.95
2018-02-01T11:27:19.305Z,3.40
2018-02-01T11:29:46.816Z,2.35
2018-02-01T11:32:14.330Z,3.60
2018-02-01T11:34:41.839Z,3.00
2018-02-01T11:37:09.364Z,2.75
2018-02-01T11:39:36.879Z,2.47
2018-02-01T11:42:04.408Z,1.90
2018-02-01T11:44:31.910Z,4.25
2018-02-01T11:46:59.429Z,4.30
2018-02-01T11:49:26.938Z,2.85
2018-02-01T11:51:54.451Z,5.82
2018-02-01T11:54:21.956Z,6.07
2018-02-01T11:56:49.461Z,3.40
2018-02-01T11:59:17.006Z,2.75
2018-02-01T12:01:45.274Z,3.50
2018-02-01T12:04:13.548Z,4.05
2018-02-01T12:06:41.821Z,4.18
2018-02-01T12:09:09.367Z,2.75
2018-02-01T12:11:36.897Z,3.55
2018-02-01T12:14:04.416Z,8.20
2018-02-01T12:16:31.939Z,4.10
2018-02-01T12:18:59.457Z,5.57
2018-02-01T12:21:27.039Z,6.12
2018-02-01T12:23:54.541Z,21.15
2018-02-01T12:26:22.798Z,13.98
2018-02-01T12:28:50.321Z,4.60
2018-02-01T12:31:17.813Z,5.30
2018-02-01T12:33:45.338Z,3.42
2018-02-01T12:36:12.839Z,2.65
2018-02-01T12:38:40.361Z,3.90
2018-02-01T12:41:07.850Z,3.78
2018-02-01T12:43:35.343Z,3.58
2018-02-01T12:46:02.855Z,3.15
2018-02-01T12:48:30.341Z,2.87
2018-02-01T12:50:58.629Z,4.43
2018-02-01T12:53:26.904Z,2.85
2018-02-01T12:55:54.593Z,3.67
2018-02-01T12:58:22.089Z,2.75
2018-02-01T13:00:49.621Z,3.12
2018-02-01T13:03:17.150Z,2.85
2018-02-01T13:05:44.642Z,4.15
2018-02-01T13:08:12.168Z,2.20
2018-02-01T13:10:39.665Z,2.00
2018-02-01T13:13:07.228Z,2.60
2018-02-01T13:15:34.723Z,3.10
2018-02-01T13:18:03.004Z,2.67
2018-02-01T13:20:31.262Z,2.12
2018-02-01T13:22:58.765Z,2.40
2018-02-01T13:25:26.258Z,2.22
2018-02-01T13:27:53.792Z,2.53
2018-02-01T13:30:21.302Z,2.75
2018-02-01T13:32:49.585Z,2.70
2018-02-01T13:35:17.857Z,2.25
2018-02-01T13:37:46.129Z,2.33
2018-02-01T13:40:14.428Z,4.32
2018-02-01T13:42:42.695Z,17.37
2018-02-01T13:45:10.977Z,10.10
2018-02-01T13:47:39.233Z,10.02
2018-02-01T13:50:06.717Z,4.87
2018-02-01T13:52:34.234Z,14.15
2018-02-01T13:55:01.749Z,11.07
2018-02-01T13:57:29.277Z,7.03
2018-02-01T13:59:57.543Z,2.45
2018-02-01T14:02:25.065Z,2.30
2018-02-01T14:04:52.564Z,2.00
2018-02-01T14:07:20.860Z,3.17
2018-02-01T14:09:48.359Z,2.20
2018-02-01T14:12:15.888Z,2.10
2018-02-01T14:14:43.381Z,2.70
2018-02-01T14:17:10.895Z,5.55
2018-02-01T14:19:38.416Z,2.00
2018-02-01T14:22:06.808Z,31.50
2018-02-01T14:24:35.099Z,3.75
2018-02-01T14:27:03.382Z,1.95
2018-02-01T14:29:31.658Z,2.47
2018-02-01T14:31:59.162Z,2.45
2018-02-01T14:34:26.692Z,1.92
2018-02-01T14:36:54.177Z,1.95
2018-02-01T14:39:21.685Z,3.78
2018-02-01T14:41:49.973Z,2.17
2018-02-01T14:44:17.518Z,2.50
2018-02-01T14:46:45.019Z,1.90
2018-02-01T16:11:09.667Z,2.20
2018-02-01T16:13:37.182Z,1.95
2018-02-01T16:16:04.690Z,2.33
2018-02-01T16:18:32.208Z,2.00
2018-02-01T16:20:59.722Z,2.22
2018-02-01T16:23:27.201Z,2.60
2018-02-01T16:25:55.541Z,6.90
2018-02-01T16:28:23.028Z,2.40
2018-02-01T16:30:51.315Z,2.28
2018-02-01T16:33:18.836Z,6.00
2018-02-01T16:35:46.368Z,2.72
2018-02-01T16:38:13.866Z,2.10
2018-02-01T16:40:41.349Z,4.03
2018-02-01T16:43:09.619Z,3.67
2018-02-01T16:45:37.894Z,5.25
2018-02-01T16:48:06.162Z,3.08
2018-02-01T16:50:34.426Z,4.05
2018-02-01T16:53:01.924Z,2.90
2018-02-01T16:55:29.417Z,4.05
2018-02-01T16:57:56.934Z,5.10
2018-02-01T17:00:24.421Z,3.97
2018-02-01T17:02:51.948Z,3.20
2018-02-01T17:05:19.433Z,3.80
2018-02-01T17:07:46.941Z,2.37
2018-02-01T17:10:14.469Z,3.97
2018-02-01T17:12:41.977Z,4.72
2018-02-01T17:15:10.253Z,4.68
2018-02-01T17:17:38.498Z,4.43
2018-02-01T17:20:06.020Z,6.30
2018-02-01T17:22:33.547Z,5.62
2018-02-01T17:25:01.819Z,7.20
2018-02-01T17:27:30.101Z,7.35
2018-02-01T17:29:57.643Z,8.23
2018-02-01T17:32:25.958Z,8.23
2018-02-01T17:34:54.194Z,8.80
2018-02-01T17:37:22.479Z,11.12
2018-02-01T17:39:50.751Z,9.70
2018-02-01T17:42:19.044Z,8.52
2018-02-01T17:44:46.540Z,9.32
2018-02-01T17:47:14.050Z,15.45
2018-02-01T17:49:42.323Z,22.58
2018-02-01T17:52:10.613Z,9.35
2018-02-01T17:54:38.120Z,8.75
2018-02-01T17:57:05.652Z,11.02
2018-02-01T17:59:33.166Z,10.25
2018-02-01T18:02:01.428Z,11.40
2018-02-01T18:04:28.955Z,12.00
2018-02-01T18:06:56.458Z,14.30
2018-02-01T18:09:23.965Z,12.73
2018-02-01T18:11:51.480Z,13.05
2018-02-01T18:14:19.754Z,13.05
2018-02-01T18:16:48.028Z,15.80
2018-02-01T18:19:16.324Z,14.85
2018-02-01T18:21:43.826Z,16.10
2018-02-01T18:24:11.321Z,16.27
2018-02-01T18:26:39.605Z,17.62
2018-02-01T18:29:07.880Z,17.87
2018-02-01T18:31:36.180Z,18.60
2018-02-01T18:34:03.693Z,16.62
2018-02-01T18:36:31.214Z,19.58
2018-02-01T18:38:58.711Z,18.00
2018-02-01T18:41:26.214Z,19.10
2018-02-01T18:43:53.725Z,18.80
2018-02-01T18:46:21.257Z,19.15
2018-02-01T18:48:48.750Z,17.02
2018-02-01T18:51:16.264Z,18.60
2018-02-01T18:53:43.790Z,17.05
2018-02-01T18:56:11.319Z,18.90
2018-02-01T18:58:38.811Z,20.70
2018-02-01T19:01:06.320Z,18.05
2018-02-01T19:03:33.846Z,17.98
2018-02-01T19:06:01.341Z,17.90
2018-02-01T19:08:28.855Z,17.80
2018-02-01T19:10:56.354Z,17.90
2018-02-01T19:13:25.600Z,18.48
2018-02-01T19:15:53.093Z,27.23
2018-02-01T19:18:20.586Z,23.40
2018-02-01T19:20:48.106Z,21.17
2018-02-01T19:23:15.597Z,17.90
2018-02-01T19:25:43.105Z,18.40
2018-02-01T19:28:10.606Z,16.05
2018-02-01T19:30:38.109Z,15.80
2018-02-01T19:33:05.624Z,17.40
2018-02-01T19:35:33.156Z,17.20
2018-02-01T19:38:00.665Z,15.35
2018-02-01T19:40:28.965Z,15.77
2018-02-01T19:42:56.462Z,16.27
2018-02-01T19:45:23.957Z,16.37
2018-02-01T19:47:52.237Z,14.70
2018-02-01T19:50:20.516Z,16.62
2018-02-01T19:52:48.809Z,17.40
2018-02-01T19:55:16.327Z,22.37
2018-02-01T19:57:43.846Z,22.60
2018-02-01T20:00:11.356Z,22.15
2018-02-01T20:02:39.657Z,22.75
2018-02-01T20:05:07.153Z,27.50
2018-02-01T20:07:34.693Z,24.60
2018-02-01T20:10:02.204Z,22.05
2018-02-01T20:12:30.467Z,20.33
2018-02-01T20:14:57.975Z,20.30
2018-02-01T20:17:25.470Z,19.70
2018-02-01T20:19:52.985Z,19.35
2018-02-01T20:22:20.497Z,17.60
2018-02-01T20:24:48.030Z,15.60
2018-02-01T20:27:15.533Z,17.15
2018-02-01T20:29:43.818Z,17.52
2018-02-01T20:32:12.083Z,16.12
2018-02-01T20:34:40.364Z,15.95
2018-02-01T20:37:08.641Z,14.73
2018-02-01T20:39:36.907Z,14.52
2018-02-01T20:42:04.423Z,15.30
2018-02-01T20:44:31.917Z,15.10
2018-02-01T20:46:59.450Z,14.77
2018-02-01T20:49:26.956Z,13.23
2018-02-01T20:51:55.232Z,13.27
2018-02-01T20:54:23.507Z,15.60
2018-02-01T20:56:51.780Z,15.80
2018-02-01T20:59:20.077Z,14.00
2018-02-01T21:01:47.564Z,15.45
2018-02-01T21:04:15.083Z,14.10
2018-02-01T21:06:43.356Z,13.73
2018-02-01T21:09:10.882Z,14.93
2018-02-01T21:11:38.399Z,12.68
2018-02-01T21:14:05.932Z,14.40
2018-02-01T21:16:34.255Z,14.02
2018-02-01T21:19:01.748Z,12.80
2018-02-01T21:21:29.258Z,15.02
2018-02-01T21:23:56.816Z,15.38
2018-02-01T21:26:24.335Z,13.82
2018-02-01T21:28:52.608Z,13.95
2018-02-01T21:31:20.904Z,13.75
2018-02-01T21:33:48.413Z,14.70
2018-02-01T21:36:15.921Z,14.00
2018-02-01T21:41:34.139Z,13.77
2018-02-01T21:44:01.655Z,14.45
2018-02-01T21:46:29.149Z,13.55
2018-02-01T21:48:56.670Z,13.52
2018-02-01T21:51:24.171Z,17.00
2018-02-01T21:53:52.211Z,13.88
2018-02-01T21:59:16.480Z,15.05
2018-02-01T22:01:44.011Z,17.10
2018-02-01T22:04:11.525Z,15.00
2018-02-01T22:06:39.017Z,14.13
2018-02-01T22:09:06.562Z,15.80
2018-02-01T22:11:34.057Z,14.50
2018-02-01T22:14:02.319Z,14.52
2018-02-01T22:16:29.862Z,15.13
2018-02-01T22:18:58.150Z,16.15
2018-02-01T22:21:25.784Z,15.23
2018-02-01T22:23:53.282Z,15.70
2018-02-01T22:26:21.578Z,15.35
2018-02-01T22:28:49.098Z,14.82
2018-02-01T22:31:16.614Z,15.15
2018-02-01T22:33:44.175Z,15.90
2018-02-01T22:36:11.683Z,15.07
2018-02-01T22:38:39.198Z,16.77
2018-02-01T22:41:06.709Z,15.55
2018-02-01T22:43:35.004Z,16.77
2018-02-01T22:46:02.526Z,15.32
2018-02-01T22:48:30.050Z,14.98
2018-02-01T22:50:57.559Z,17.17
2018-02-01T22:53:25.077Z,16.52
2018-02-01T22:55:52.604Z,15.32
2018-02-01T22:58:20.120Z,16.95
2018-02-01T23:00:47.685Z,15.80
2018-02-01T23:03:15.205Z,16.30
2018-02-01T23:05:42.738Z,15.57
2018-02-01T23:08:10.239Z,15.82
2018-02-01T23:10:37.739Z,16.45
2018-02-01T23:13:06.029Z,15.45
2018-02-01T23:15:33.526Z,17.35
2018-02-01T23:18:01.052Z,15.50
2018-02-01T23:20:28.549Z,15.68
2018-02-01T23:22:56.066Z,15.60
2018-02-01T23:25:23.588Z,14.05
2018-02-01T23:27:51.158Z,15.85
2018-02-01T23:30:19.417Z,16.20
2018-02-01T23:32:46.913Z,15.38
2018-02-01T23:35:14.440Z,15.95
2018-02-01T23:37:41.948Z,13.82
2018-02-01T23:40:09.476Z,15.75
2018-02-01T23:42:37.753Z,15.32
2018-02-01T23:45:06.052Z,17.75
2018-02-01T23:47:33.546Z,18.10
2018-02-01T23:50:01.064Z,16.98
2018-02-01T23:52:28.601Z,17.02
2018-02-01T23:54:56.860Z,18.10
2018-02-01T23:57:24.396Z,17.55
2018-02-01T23:59:51.904Z,16.50
